createdAt,value
2023-02-14T00:00:29.316Z,96.70
2023-02-14T00:01:32.568Z,80.30
2023-02-14T00:02:36.459Z,91.60
2023-02-14T00:04:12.666Z,93.10
2023-02-14T00:05:16.513Z,92.00
2023-02-14T00:06:19.745Z,84.00
2023-02-14T00:07:54.700Z,93.20
2023-02-14T00:08:57.984Z,94.80
2023-02-14T00:10:01.177Z,80.70
2023-02-14T00:11:36.472Z,80.60
2023-02-14T00:12:39.597Z,79.20
2023-02-14T00:13:42.770Z,81.60
2023-02-14T00:15:18.000Z,93.60
2023-02-14T00:16:21.625Z,93.40
2023-02-14T00:17:25.458Z,94.80
2023-02-14T00:19:00.736Z,94.90
2023-02-14T00:20:04.134Z,80.00
2023-02-14T00:21:07.687Z,92.90
2023-02-14T00:22:43.175Z,81.20
2023-02-14T00:23:46.319Z,76.60
2023-02-14T00:24:49.769Z,82.90
2023-02-14T00:26:25.135Z,82.20
2023-02-14T00:27:28.407Z,78.60
2023-02-14T00:28:31.359Z,92.00
2023-02-14T00:30:06.904Z,78.60
2023-02-14T00:31:11.197Z,91.80
2023-02-14T00:32:15.321Z,79.60
2023-02-14T00:33:50.553Z,79.60
2023-02-14T00:34:53.837Z,78.20
2023-02-14T00:35:57.079Z,92.50
2023-02-14T00:37:32.395Z,89.70
2023-02-14T00:38:35.743Z,77.60
2023-02-14T00:39:39.228Z,92.60
2023-02-14T00:41:14.757Z,77.60
2023-02-14T00:42:17.827Z,79.20
2023-02-14T00:43:21.146Z,80.70
2023-02-14T00:44:56.530Z,72.90
2023-02-14T00:46:00.281Z,93.70
2023-02-14T00:47:03.849Z,80.50
2023-02-14T00:48:38.973Z,79.60
2023-02-14T00:49:42.048Z,89.60
2023-02-14T00:50:45.027Z,76.30
2023-02-14T00:52:20.734Z,90.30
2023-02-14T00:53:23.893Z,79.20
2023-02-14T00:54:26.935Z,78.40
2023-02-14T00:56:02.151Z,89.90
2023-02-14T00:57:05.246Z,79.30
2023-02-14T00:58:08.420Z,80.90
2023-02-14T00:59:43.750Z,78.10
2023-02-14T01:00:29.635Z,90.70
2023-02-14T01:01:33.298Z,77.20
2023-02-14T01:02:36.795Z,91.30
2023-02-14T01:04:12.063Z,90.00
2023-02-14T01:05:15.247Z,90.50
2023-02-14T01:06:18.344Z,78.00
2023-02-14T01:07:53.649Z,89.30
2023-02-14T01:08:56.680Z,78.00
2023-02-14T01:09:59.817Z,75.60
2023-02-14T01:11:36.172Z,75.10
2023-02-14T01:12:39.223Z,88.20
2023-02-14T01:13:42.553Z,91.70
2023-02-14T01:15:17.995Z,80.20
2023-02-14T01:16:21.431Z,74.10
2023-02-14T01:17:24.900Z,87.80
2023-02-14T01:19:00.287Z,91.00
2023-02-14T01:20:03.539Z,76.80
2023-02-14T01:21:07.204Z,75.80
2023-02-14T01:22:42.298Z,76.10
2023-02-14T01:23:45.395Z,77.10
2023-02-14T01:24:48.524Z,87.10
2023-02-14T01:26:23.834Z,75.30
2023-02-14T01:27:27.048Z,87.30
2023-02-14T01:28:30.248Z,75.90
2023-02-14T01:30:06.187Z,88.80
2023-02-14T01:31:10.340Z,76.50
2023-02-14T01:32:14.622Z,90.80
2023-02-14T01:33:49.765Z,76.40
2023-02-14T01:34:53.065Z,77.30
2023-02-14T01:35:56.252Z,91.20
2023-02-14T01:37:31.514Z,88.50
2023-02-14T01:38:34.692Z,78.00
2023-02-14T01:39:37.844Z,90.80
2023-02-14T01:41:13.301Z,90.60
2023-02-14T01:42:16.386Z,77.50
2023-02-14T01:43:19.829Z,78.70
2023-02-14T01:44:54.943Z,73.90
2023-02-14T01:45:58.726Z,89.30
2023-02-14T01:47:02.054Z,90.20
2023-02-14T01:48:36.987Z,75.70
2023-02-14T01:49:40.021Z,91.40
2023-02-14T01:50:43.630Z,88.90
2023-02-14T01:52:21.395Z,75.80
2023-02-14T01:53:24.486Z,88.60
2023-02-14T01:54:27.758Z,76.90
2023-02-14T01:56:02.936Z,75.20
2023-02-14T01:57:05.866Z,75.50
2023-02-14T01:58:08.907Z,76.10
2023-02-14T01:59:44.074Z,74.80
2023-02-14T02:00:29.261Z,88.00
2023-02-14T02:01:32.732Z,77.20
2023-02-14T02:02:36.208Z,86.50
2023-02-14T02:04:11.475Z,90.20
2023-02-14T02:05:14.607Z,76.40
2023-02-14T02:06:17.879Z,89.60
2023-02-14T02:07:53.178Z,73.70
2023-02-14T02:08:56.477Z,73.40
2023-02-14T02:09:59.774Z,74.60
2023-02-14T02:11:34.719Z,87.70
2023-02-14T02:12:39.887Z,89.40
2023-02-14T02:13:42.930Z,76.20
2023-02-14T02:15:18.108Z,87.00
2023-02-14T02:16:21.157Z,87.30
2023-02-14T02:17:24.499Z,75.80
2023-02-14T02:18:59.678Z,88.10
2023-02-14T02:20:02.921Z,88.60
2023-02-14T02:21:06.457Z,76.60
2023-02-14T02:22:41.659Z,76.50
2023-02-14T02:23:44.946Z,86.60
2023-02-14T02:24:48.150Z,86.90
2023-02-14T02:26:23.182Z,74.10
2023-02-14T02:27:26.433Z,76.80
2023-02-14T02:28:29.474Z,76.70
2023-02-14T02:30:04.964Z,87.30
2023-02-14T02:31:10.171Z,87.50
2023-02-14T02:32:14.269Z,76.00
2023-02-14T02:33:49.356Z,76.60
2023-02-14T02:34:52.401Z,75.50
2023-02-14T02:35:55.852Z,87.90
2023-02-14T02:37:31.235Z,87.20
2023-02-14T02:38:34.244Z,88.40
2023-02-14T02:39:37.347Z,87.80
2023-02-14T02:41:12.980Z,76.60
2023-02-14T02:42:15.987Z,87.10
2023-02-14T02:43:18.929Z,89.90
2023-02-14T02:44:55.686Z,87.90
2023-02-14T02:45:59.303Z,75.80
2023-02-14T02:47:02.663Z,87.20
2023-02-14T02:48:37.821Z,86.30
2023-02-14T02:49:40.994Z,88.30
2023-02-14T02:50:44.199Z,76.30
2023-02-14T02:52:19.431Z,87.30
2023-02-14T02:53:22.746Z,87.30
2023-02-14T02:54:26.138Z,74.80
2023-02-14T02:56:01.530Z,76.70
2023-02-14T02:57:04.612Z,87.40
2023-02-14T02:58:07.894Z,72.30
2023-02-14T02:59:43.375Z,73.00
2023-02-14T03:00:28.843Z,85.60
2023-02-14T03:01:32.123Z,86.00
2023-02-14T03:02:35.588Z,87.00
2023-02-14T03:04:10.575Z,74.10
2023-02-14T03:05:14.391Z,86.70
2023-02-14T03:06:17.674Z,88.40
2023-02-14T03:07:53.327Z,72.60
2023-02-14T03:08:56.608Z,82.30
2023-02-14T03:10:00.091Z,72.90
2023-02-14T03:11:35.251Z,84.50
2023-02-14T03:12:38.196Z,73.70
2023-02-14T03:13:41.478Z,75.20
2023-02-14T03:15:16.859Z,73.40
2023-02-14T03:16:20.502Z,87.10
2023-02-14T03:17:24.075Z,75.50
2023-02-14T03:18:59.416Z,84.40
2023-02-14T03:20:02.737Z,88.00
2023-02-14T03:21:06.602Z,74.80
2023-02-14T03:22:41.637Z,85.70
2023-02-14T03:23:44.776Z,87.10
2023-02-14T03:24:47.805Z,88.30
2023-02-14T03:26:23.158Z,72.70
2023-02-14T03:27:26.144Z,74.20
2023-02-14T03:28:29.547Z,87.50
2023-02-14T03:30:04.971Z,85.70
2023-02-14T03:31:09.877Z,74.70
2023-02-14T03:32:14.594Z,86.90
2023-02-14T03:33:50.179Z,76.50
2023-02-14T03:34:53.515Z,75.00
2023-02-14T03:35:56.804Z,86.50
2023-02-14T03:37:32.152Z,75.70
2023-02-14T03:38:35.238Z,86.20
2023-02-14T03:39:38.114Z,85.90
2023-02-14T03:41:13.830Z,85.50
2023-02-14T03:42:17.706Z,87.20
2023-02-14T03:43:21.001Z,88.80
2023-02-14T03:44:56.531Z,77.10
2023-02-14T03:45:59.891Z,86.20
2023-02-14T03:47:03.209Z,74.40
2023-02-14T03:48:38.286Z,73.70
2023-02-14T03:49:41.592Z,73.90
2023-02-14T03:50:44.905Z,87.30
2023-02-14T03:52:20.374Z,74.70
2023-02-14T03:53:23.537Z,85.70
2023-02-14T03:54:26.765Z,83.90
2023-02-14T03:56:02.094Z,73.20
2023-02-14T03:57:05.061Z,74.00
2023-02-14T03:58:08.557Z,73.30
2023-02-14T03:59:43.769Z,86.90
2023-02-14T04:00:29.636Z,87.10
2023-02-14T04:01:33.526Z,87.00
2023-02-14T04:02:37.204Z,74.40
2023-02-14T04:04:12.732Z,72.10
2023-02-14T04:05:15.809Z,72.60
2023-02-14T04:06:19.140Z,84.80
2023-02-14T04:07:54.761Z,84.90
2023-02-14T04:08:57.972Z,85.00
2023-02-14T04:10:01.574Z,73.20
2023-02-14T04:11:36.509Z,85.50
2023-02-14T04:12:54.811Z,84.60
2023-02-14T04:13:57.933Z,74.00
2023-02-14T04:15:33.433Z,84.60
2023-02-14T04:16:37.104Z,72.10
2023-02-14T04:17:40.010Z,85.70
2023-02-14T04:19:15.033Z,71.60
2023-02-14T04:20:18.690Z,84.30
2023-02-14T04:21:21.836Z,73.30
2023-02-14T04:22:57.198Z,73.00
2023-02-14T04:24:01.505Z,85.90
2023-02-14T04:25:04.930Z,83.30
2023-02-14T04:26:39.917Z,72.00
2023-02-14T04:27:43.032Z,84.20
2023-02-14T04:28:46.247Z,85.20
2023-02-14T04:30:21.712Z,71.90
2023-02-14T04:31:25.860Z,73.00
2023-02-14T04:32:30.166Z,72.10
2023-02-14T04:34:05.434Z,74.80
2023-02-14T04:35:08.544Z,73.90
2023-02-14T04:36:11.763Z,86.40
2023-02-14T04:37:47.301Z,84.70
2023-02-14T04:38:50.395Z,70.10
2023-02-14T04:39:53.542Z,85.80
2023-02-14T04:41:28.844Z,82.80
2023-02-14T04:42:32.156Z,83.10
2023-02-14T04:43:35.118Z,71.00
2023-02-14T04:45:10.392Z,71.90
2023-02-14T04:46:13.863Z,86.50
2023-02-14T04:47:17.229Z,85.90
2023-02-14T04:48:53.059Z,73.30
2023-02-14T04:49:56.190Z,84.10
2023-02-14T04:50:59.782Z,72.90
2023-02-14T04:52:35.009Z,73.90
2023-02-14T04:53:38.170Z,85.60
2023-02-14T04:54:41.562Z,85.60
2023-02-14T04:56:16.525Z,79.70
2023-02-14T04:57:19.668Z,86.00
2023-02-14T04:58:23.075Z,72.40
2023-02-14T04:59:58.226Z,83.90
2023-02-14T05:00:28.959Z,83.90
2023-02-14T05:01:32.366Z,75.70
2023-02-14T05:02:36.032Z,89.10
2023-02-14T05:04:11.441Z,73.70
2023-02-14T05:05:58.398Z,71.90
2023-02-14T05:07:02.094Z,82.50
2023-02-14T05:08:05.634Z,84.10
2023-02-14T05:09:41.555Z,86.20
2023-02-14T05:10:45.029Z,83.00
2023-02-14T05:11:48.715Z,72.10
2023-02-14T05:13:24.338Z,84.70
2023-02-14T05:14:27.792Z,84.80
2023-02-14T05:15:31.290Z,71.80
2023-02-14T05:17:09.028Z,85.00
2023-02-14T05:18:12.746Z,87.40
2023-02-14T05:19:16.160Z,72.60
2023-02-14T05:20:51.841Z,72.50
2023-02-14T05:21:56.053Z,72.20
2023-02-14T05:22:59.335Z,82.60
2023-02-14T05:24:35.074Z,71.80
2023-02-14T05:25:38.446Z,82.40
2023-02-14T05:26:41.821Z,83.60
2023-02-14T05:28:17.521Z,73.00
2023-02-14T05:29:21.140Z,70.70
2023-02-14T05:30:24.729Z,71.80
2023-02-14T05:32:02.388Z,85.50
2023-02-14T05:33:06.040Z,71.80
2023-02-14T05:34:09.332Z,83.00
2023-02-14T05:35:46.150Z,85.20
2023-02-14T05:36:49.412Z,84.00
2023-02-14T05:37:52.715Z,84.90
2023-02-14T05:39:28.668Z,83.30
2023-02-14T05:40:32.016Z,71.70
2023-02-14T05:41:35.557Z,71.90
2023-02-14T05:43:10.998Z,71.00
2023-02-14T05:44:14.279Z,71.50
2023-02-14T05:45:17.835Z,73.90
2023-02-14T05:46:53.381Z,85.40
2023-02-14T05:47:56.929Z,82.50
2023-02-14T05:49:00.284Z,82.90
2023-02-14T05:50:36.157Z,73.10
2023-02-14T05:51:39.648Z,72.50
2023-02-14T05:52:43.106Z,84.80
2023-02-14T05:54:21.527Z,71.00
2023-02-14T05:55:25.304Z,81.40
2023-02-14T05:56:28.577Z,69.50
2023-02-14T05:58:04.015Z,73.40
2023-02-14T05:59:07.776Z,70.60
2023-02-14T06:00:28.988Z,69.00
2023-02-14T06:01:33.656Z,72.20
2023-02-14T06:02:37.518Z,84.70
2023-02-14T06:04:13.334Z,72.70
2023-02-14T06:05:17.014Z,72.40
2023-02-14T06:06:20.606Z,71.20
2023-02-14T06:07:56.257Z,82.90
2023-02-14T06:08:59.513Z,70.40
2023-02-14T06:10:02.868Z,82.00
2023-02-14T06:11:38.435Z,72.10
2023-02-14T06:12:41.658Z,70.30
2023-02-14T06:13:45.172Z,69.90
2023-02-14T06:15:20.446Z,69.80
2023-02-14T06:16:24.067Z,72.20
2023-02-14T06:17:27.715Z,83.60
2023-02-14T06:19:03.376Z,73.20
2023-02-14T06:20:07.144Z,83.20
2023-02-14T06:21:11.036Z,73.80
2023-02-14T06:22:47.907Z,81.50
2023-02-14T06:23:51.458Z,72.60
2023-02-14T06:24:55.029Z,71.60
2023-02-14T06:26:30.824Z,73.90
2023-02-14T06:27:34.206Z,83.20
2023-02-14T06:28:39.967Z,83.90
2023-02-14T06:30:15.682Z,82.70
2023-02-14T06:31:21.069Z,74.70
2023-02-14T06:32:25.470Z,69.70
2023-02-14T06:34:00.858Z,71.50
2023-02-14T06:35:04.428Z,82.30
2023-02-14T06:36:07.569Z,84.10
2023-02-14T06:37:43.181Z,69.50
2023-02-14T06:38:46.458Z,72.20
2023-02-14T06:39:49.933Z,85.20
2023-02-14T06:41:25.457Z,80.30
2023-02-14T06:42:28.728Z,72.60
2023-02-14T06:43:32.206Z,70.90
2023-02-14T06:45:07.895Z,83.80
2023-02-14T06:46:11.869Z,73.10
2023-02-14T06:47:15.852Z,69.60
2023-02-14T06:48:51.270Z,72.00
2023-02-14T06:49:54.736Z,71.60
2023-02-14T06:50:58.549Z,71.00
2023-02-14T06:52:34.477Z,70.80
2023-02-14T06:53:37.705Z,81.40
2023-02-14T06:54:41.280Z,81.40
2023-02-14T06:56:16.660Z,81.80
2023-02-14T06:57:20.103Z,72.90
2023-02-14T06:58:23.758Z,72.10
2023-02-14T06:59:59.331Z,81.90
2023-02-14T07:00:29.674Z,81.90
2023-02-14T07:01:33.626Z,82.50
2023-02-14T07:02:40.135Z,73.50
2023-02-14T07:04:15.881Z,71.30
2023-02-14T07:05:19.410Z,83.30
2023-02-14T07:06:22.729Z,71.40
2023-02-14T07:07:58.042Z,84.20
2023-02-14T07:09:01.311Z,71.40
2023-02-14T07:10:04.799Z,81.20
2023-02-14T07:11:40.187Z,73.30
2023-02-14T07:12:43.525Z,71.30
2023-02-14T07:13:49.390Z,73.80
2023-02-14T07:15:24.990Z,70.70
2023-02-14T07:16:28.806Z,82.20
2023-02-14T07:17:32.159Z,83.80
2023-02-14T07:19:07.717Z,85.00
2023-02-14T07:20:11.095Z,73.70
2023-02-14T07:21:14.996Z,82.30
2023-02-14T07:22:50.499Z,80.80
2023-02-14T07:23:53.933Z,82.90
2023-02-14T07:24:57.219Z,67.40
2023-02-14T07:26:32.745Z,77.60
2023-02-14T07:27:36.418Z,80.50
2023-02-14T07:28:40.088Z,81.80
2023-02-14T07:30:16.119Z,70.70
2023-02-14T07:31:20.639Z,83.10
2023-02-14T07:32:25.482Z,79.30
2023-02-14T07:34:00.974Z,70.40
2023-02-14T07:35:04.210Z,81.00
2023-02-14T07:36:07.576Z,70.70
2023-02-14T07:37:42.990Z,70.40
2023-02-14T07:38:46.483Z,70.00
2023-02-14T07:39:49.935Z,78.30
2023-02-14T07:41:25.492Z,70.50
2023-02-14T07:42:28.783Z,69.20
2023-02-14T07:43:32.209Z,82.20
2023-02-14T07:45:26.231Z,69.40
2023-02-14T07:46:30.291Z,81.20
2023-02-14T07:47:34.224Z,67.80
2023-02-14T07:49:09.880Z,69.20
2023-02-14T07:50:12.972Z,71.50
2023-02-14T07:51:16.948Z,82.50
2023-02-14T07:52:52.364Z,69.10
2023-02-14T07:53:55.712Z,71.90
2023-02-14T07:54:59.123Z,71.10
2023-02-14T07:56:34.895Z,83.50
2023-02-14T07:57:38.279Z,70.80
2023-02-14T07:58:41.652Z,69.70
2023-02-14T08:00:29.784Z,69.50
2023-02-14T08:01:33.909Z,70.70
2023-02-14T08:02:37.702Z,70.10
2023-02-14T08:04:12.923Z,68.60
2023-02-14T08:05:16.464Z,82.20
2023-02-14T08:06:20.388Z,71.10
2023-02-14T08:07:55.841Z,70.50
2023-02-14T08:08:59.195Z,70.60
2023-02-14T08:10:02.684Z,69.50
2023-02-14T08:11:37.993Z,70.90
2023-02-14T08:12:41.545Z,83.40
2023-02-14T08:13:45.030Z,71.90
2023-02-14T08:15:20.634Z,68.70
2023-02-14T08:16:24.411Z,82.40
2023-02-14T08:17:28.242Z,69.30
2023-02-14T08:19:06.485Z,84.70
2023-02-14T08:20:09.809Z,83.80
2023-02-14T08:21:13.744Z,84.70
2023-02-14T08:22:49.227Z,81.80
2023-02-14T08:23:53.341Z,70.90
2023-02-14T08:24:56.795Z,81.90
2023-02-14T08:26:32.140Z,82.50
2023-02-14T08:27:35.677Z,70.00
2023-02-14T08:28:39.306Z,72.70
2023-02-14T08:30:14.817Z,69.10
2023-02-14T08:31:33.476Z,84.20
2023-02-14T08:32:39.242Z,73.10
2023-02-14T08:34:15.277Z,85.30
2023-02-14T08:35:18.682Z,84.70
2023-02-14T08:36:24.064Z,71.80
2023-02-14T08:37:59.687Z,83.50
2023-02-14T08:39:03.176Z,71.10
2023-02-14T08:40:06.295Z,71.40
2023-02-14T08:41:41.663Z,83.50
2023-02-14T08:42:45.037Z,73.60
2023-02-14T08:43:51.341Z,84.60
2023-02-14T08:45:27.206Z,85.90
2023-02-14T08:46:31.205Z,71.60
2023-02-14T08:47:35.122Z,72.40
2023-02-14T08:49:10.753Z,82.80
2023-02-14T08:50:14.052Z,72.40
2023-02-14T08:51:18.142Z,83.60
2023-02-14T08:52:53.934Z,85.20
2023-02-14T08:53:57.456Z,87.70
2023-02-14T08:55:00.720Z,72.90
2023-02-14T08:56:36.499Z,85.50
2023-02-14T08:57:39.954Z,87.00
2023-02-14T08:58:44.180Z,73.80
2023-02-14T09:00:29.362Z,84.70
2023-02-14T09:01:33.492Z,72.00
2023-02-14T09:02:37.318Z,86.30
2023-02-14T09:04:13.473Z,86.10
2023-02-14T09:05:17.200Z,89.70
2023-02-14T09:06:20.718Z,72.90
2023-02-14T09:07:56.294Z,87.50
2023-02-14T09:09:02.414Z,87.40
2023-02-14T09:10:06.291Z,88.20
2023-02-14T09:11:42.028Z,76.40
2023-02-14T09:12:45.736Z,76.30
2023-02-14T09:13:48.943Z,71.50
2023-02-14T09:15:24.970Z,87.80
2023-02-14T09:16:29.025Z,86.70
2023-02-14T09:17:32.909Z,78.10
2023-02-14T09:19:08.540Z,75.50
2023-02-14T09:20:12.879Z,73.30
2023-02-14T09:21:16.877Z,87.30
2023-02-14T09:22:54.586Z,89.40
2023-02-14T09:23:57.818Z,77.40
2023-02-14T09:25:01.323Z,77.50
2023-02-14T09:26:36.885Z,88.20
2023-02-14T09:27:40.269Z,88.60
2023-02-14T09:28:43.408Z,89.50
2023-02-14T09:30:19.561Z,90.00
2023-02-14T09:31:23.840Z,90.20
2023-02-14T09:32:27.942Z,79.80
2023-02-14T09:34:03.622Z,77.30
2023-02-14T09:35:07.088Z,89.20
2023-02-14T09:36:10.521Z,77.00
2023-02-14T09:37:46.086Z,79.90
2023-02-14T09:38:49.456Z,90.80
2023-02-14T09:39:52.984Z,92.00
2023-02-14T09:41:28.217Z,91.10
2023-02-14T09:42:31.647Z,77.20
2023-02-14T09:43:35.365Z,78.10
2023-02-14T09:45:11.176Z,87.90
2023-02-14T09:46:14.720Z,76.90
2023-02-14T09:47:18.026Z,77.20
2023-02-14T09:48:53.914Z,90.90
2023-02-14T09:49:57.839Z,79.00
2023-02-14T09:51:01.954Z,76.60
2023-02-14T09:52:37.928Z,91.70
2023-02-14T09:53:41.691Z,92.90
2023-02-14T09:54:45.238Z,91.20
2023-02-14T09:56:21.819Z,90.50
2023-02-14T09:57:37.847Z,93.80
2023-02-14T09:58:41.157Z,92.30
2023-02-14T10:00:29.703Z,92.20
2023-02-14T10:01:33.503Z,91.90
2023-02-14T10:02:37.222Z,78.50
2023-02-14T10:04:12.619Z,82.40
2023-02-14T10:05:15.937Z,93.50
2023-02-14T10:06:19.743Z,79.40
2023-02-14T10:07:55.110Z,95.40
2023-02-14T10:08:58.699Z,82.80
2023-02-14T10:10:02.132Z,80.50
2023-02-14T10:11:37.607Z,99.30
2023-02-14T10:12:41.315Z,83.90
2023-02-14T10:13:44.825Z,83.30
2023-02-14T10:15:20.426Z,94.40
2023-02-14T10:16:26.491Z,95.10
2023-02-14T10:17:30.637Z,81.30
2023-02-14T10:19:06.453Z,82.70
2023-02-14T10:20:10.038Z,82.10
2023-02-14T10:21:14.100Z,83.80
2023-02-14T10:22:50.996Z,82.00
2023-02-14T10:23:54.590Z,83.30
2023-02-14T10:24:57.906Z,82.70
2023-02-14T10:26:33.323Z,82.00
2023-02-14T10:27:36.727Z,96.90
2023-02-14T10:28:40.129Z,88.70
2023-02-14T10:30:15.642Z,102.00
2023-02-14T10:31:20.786Z,99.90
2023-02-14T10:32:25.097Z,84.50
2023-02-14T10:34:03.370Z,99.30
2023-02-14T10:35:06.672Z,84.00
2023-02-14T10:36:09.963Z,86.60
2023-02-14T10:37:45.350Z,101.60
2023-02-14T10:38:49.095Z,100.60
2023-02-14T10:39:52.624Z,102.90
2023-02-14T10:41:28.070Z,99.00
2023-02-14T10:42:31.355Z,85.50
2023-02-14T10:43:34.858Z,101.10
2023-02-14T10:45:10.406Z,102.40
2023-02-14T10:46:15.977Z,103.30
2023-02-14T10:47:21.095Z,89.00
2023-02-14T10:48:56.443Z,89.10
2023-02-14T10:49:59.618Z,100.50
2023-02-14T10:51:03.333Z,88.50
2023-02-14T10:52:38.840Z,102.80
2023-02-14T10:53:42.439Z,101.70
2023-02-14T10:54:45.849Z,87.40
2023-02-14T10:56:36.056Z,88.60
2023-02-14T10:57:39.476Z,100.10
2023-02-14T10:58:42.884Z,88.00
2023-02-14T11:00:29.394Z,104.90
2023-02-14T11:01:33.182Z,100.30
2023-02-14T11:02:36.777Z,86.40
2023-02-14T11:04:12.475Z,87.10
2023-02-14T11:05:15.795Z,89.40
2023-02-14T11:06:19.172Z,86.60
2023-02-14T11:07:54.875Z,87.80
2023-02-14T11:08:58.365Z,86.50
2023-02-14T11:10:01.817Z,100.20
2023-02-14T11:11:37.796Z,90.10
2023-02-14T11:12:41.500Z,101.70
2023-02-14T11:13:44.945Z,103.00
2023-02-14T11:15:22.273Z,102.70
2023-02-14T11:16:25.875Z,102.80
2023-02-14T11:17:29.697Z,88.70
2023-02-14T11:19:05.488Z,105.00
2023-02-14T11:20:08.969Z,106.00
2023-02-14T11:21:12.694Z,104.60
2023-02-14T11:22:48.344Z,105.40
2023-02-14T11:23:51.961Z,90.40
2023-02-14T11:24:55.209Z,87.90
2023-02-14T11:26:33.452Z,106.30
2023-02-14T11:27:37.861Z,105.80
2023-02-14T11:28:42.124Z,87.50
2023-02-14T11:30:18.039Z,90.80
2023-02-14T11:31:22.826Z,90.90
2023-02-14T11:32:26.663Z,90.90
2023-02-14T11:34:04.708Z,90.30
2023-02-14T11:35:08.347Z,91.40
2023-02-14T11:36:11.913Z,90.60
2023-02-14T11:37:47.642Z,107.60
2023-02-14T11:38:51.006Z,91.30
2023-02-14T11:39:54.487Z,106.60
2023-02-14T11:41:31.784Z,108.10
2023-02-14T11:42:35.447Z,92.40
2023-02-14T11:43:40.101Z,104.40
2023-02-14T11:45:15.798Z,89.80
2023-02-14T11:46:19.500Z,91.70
2023-02-14T11:47:25.822Z,91.80
2023-02-14T11:49:01.753Z,107.90
2023-02-14T11:50:05.341Z,92.00
2023-02-14T11:51:08.961Z,92.20
2023-02-14T11:52:44.663Z,92.50
2023-02-14T11:53:48.037Z,92.50
2023-02-14T11:54:51.786Z,106.60
2023-02-14T11:56:27.761Z,107.30
2023-02-14T11:57:32.279Z,93.60
2023-02-14T11:58:36.739Z,92.30
2023-02-14T12:00:29.467Z,106.70
2023-02-14T12:01:32.773Z,106.80
2023-02-14T12:02:36.782Z,105.60
2023-02-14T12:04:12.991Z,93.80
2023-02-14T12:05:16.697Z,91.50
2023-02-14T12:06:20.298Z,92.90
2023-02-14T12:07:56.191Z,90.20
2023-02-14T12:08:59.802Z,92.50
2023-02-14T12:10:05.906Z,107.70
2023-02-14T12:11:41.692Z,109.40
2023-02-14T12:12:45.173Z,107.90
2023-02-14T12:13:48.692Z,109.30
2023-02-14T12:15:24.335Z,112.20
2023-02-14T12:16:28.356Z,95.60
2023-02-14T12:17:31.742Z,95.30
2023-02-14T12:19:07.097Z,112.60
2023-02-14T12:20:10.515Z,95.40
2023-02-14T12:21:14.721Z,109.40
2023-02-14T12:22:50.669Z,108.90
2023-02-14T12:23:54.189Z,111.00
2023-02-14T12:24:57.724Z,92.90
2023-02-14T12:26:33.341Z,92.60
2023-02-14T12:27:37.179Z,113.20
2023-02-14T12:28:40.735Z,94.00
2023-02-14T12:30:16.350Z,95.00
2023-02-14T12:31:21.547Z,114.60
2023-02-14T12:32:26.062Z,96.80
2023-02-14T12:34:04.667Z,96.40
2023-02-14T12:35:07.751Z,98.10
2023-02-14T12:36:11.118Z,115.00
2023-02-14T12:37:48.742Z,99.20
2023-02-14T12:39:02.973Z,99.90
2023-02-14T12:40:06.520Z,114.00
2023-02-14T12:41:42.304Z,96.40
2023-02-14T12:42:45.835Z,95.70
2023-02-14T12:43:49.343Z,115.80
2023-02-14T12:45:25.264Z,98.70
2023-02-14T12:47:32.140Z,115.80
2023-02-14T12:49:09.013Z,116.10
2023-02-14T12:50:12.456Z,115.00
2023-02-14T12:51:16.569Z,117.50
2023-02-14T12:52:52.509Z,100.50
2023-02-14T12:53:55.989Z,102.80
2023-02-14T12:54:59.631Z,103.50
2023-02-14T12:56:35.392Z,117.10
2023-02-14T12:57:38.887Z,116.20
2023-02-14T12:58:42.528Z,99.00
2023-02-14T13:00:29.946Z,116.50
2023-02-14T13:01:50.753Z,118.70
2023-02-14T13:02:54.717Z,116.70
2023-02-14T13:04:30.533Z,118.50
2023-02-14T13:05:34.131Z,118.30
2023-02-14T13:06:37.385Z,100.40
2023-02-14T13:08:13.129Z,102.20
2023-02-14T13:09:17.401Z,116.50
2023-02-14T13:10:21.077Z,103.50
2023-02-14T13:11:57.433Z,118.50
2023-02-14T13:13:00.896Z,119.70
2023-02-14T13:14:04.436Z,118.20
2023-02-14T13:15:40.065Z,101.70
2023-02-14T13:16:45.527Z,101.10
2023-02-14T13:17:49.159Z,101.70
2023-02-14T13:19:25.017Z,101.20
2023-02-14T13:20:28.629Z,120.40
2023-02-14T13:21:32.245Z,102.00
2023-02-14T13:23:07.842Z,105.80
2023-02-14T13:24:11.581Z,105.50
2023-02-14T13:25:15.111Z,117.90
2023-02-14T13:26:50.706Z,119.30
2023-02-14T13:27:54.057Z,102.20
2023-02-14T13:28:57.604Z,115.20
2023-02-14T13:30:33.843Z,116.80
2023-02-14T13:31:38.745Z,117.10
2023-02-14T13:32:43.233Z,102.50
2023-02-14T13:34:19.296Z,100.40
2023-02-14T13:35:22.836Z,118.70
2023-02-14T13:36:27.441Z,99.40
2023-02-14T13:38:03.352Z,103.40
2023-02-14T13:39:07.029Z,101.60
2023-02-14T13:40:10.441Z,117.50
2023-02-14T13:41:46.168Z,118.20
2023-02-14T13:42:49.604Z,117.40
2023-02-14T13:43:53.119Z,105.20
2023-02-14T13:45:31.622Z,118.70
2023-02-14T13:46:35.460Z,101.20
2023-02-14T13:47:39.423Z,101.60
2023-02-14T13:49:15.389Z,99.90
2023-02-14T13:50:19.320Z,114.10
2023-02-14T13:51:22.746Z,100.70
2023-02-14T13:52:58.414Z,99.40
2023-02-14T13:54:02.003Z,104.20
2023-02-14T13:55:05.377Z,99.90
2023-02-14T13:56:41.935Z,116.90
2023-02-14T13:57:45.411Z,98.50
2023-02-14T13:58:49.233Z,114.80
2023-02-14T14:00:30.206Z,116.30
2023-02-14T14:01:34.066Z,116.80
2023-02-14T14:02:41.374Z,100.70
2023-02-14T14:04:17.515Z,116.60
2023-02-14T14:05:20.910Z,113.60
2023-02-14T14:06:24.485Z,115.10
2023-02-14T14:08:00.265Z,117.20
2023-02-14T14:09:03.862Z,116.80
2023-02-14T14:10:07.493Z,99.60
2023-02-14T14:11:43.324Z,115.70
2023-02-14T14:12:46.864Z,115.20
2023-02-14T14:13:52.369Z,114.80
2023-02-14T14:15:27.912Z,97.00
2023-02-14T14:16:31.404Z,96.90
2023-02-14T14:17:34.930Z,115.00
2023-02-14T14:19:10.150Z,98.20
2023-02-14T14:20:13.344Z,113.90
2023-02-14T14:21:16.699Z,114.90
2023-02-14T14:22:52.266Z,116.50
2023-02-14T14:23:55.522Z,115.20
2023-02-14T14:24:58.686Z,114.60
2023-02-14T14:26:33.972Z,99.50
2023-02-14T14:27:37.125Z,112.50
2023-02-14T14:28:40.366Z,97.00
2023-02-14T14:30:16.252Z,98.20
2023-02-14T14:31:20.143Z,115.10
2023-02-14T14:32:24.249Z,99.80
2023-02-14T14:33:59.500Z,98.30
2023-02-14T14:35:02.984Z,99.10
2023-02-14T14:36:08.360Z,98.40
2023-02-14T14:37:43.984Z,113.30
2023-02-14T14:38:47.533Z,114.80
2023-02-14T14:39:50.984Z,114.30
2023-02-14T14:41:26.514Z,115.00
2023-02-14T14:42:29.791Z,100.00
2023-02-14T14:43:33.085Z,98.80
2023-02-14T14:45:08.404Z,115.40
2023-02-14T14:46:12.401Z,116.30
2023-02-14T14:47:16.013Z,113.20
2023-02-14T14:48:52.219Z,113.20
2023-02-14T14:49:55.501Z,114.40
2023-02-14T14:50:58.934Z,114.30
2023-02-14T14:52:34.552Z,99.80
2023-02-14T14:53:38.128Z,114.30
2023-02-14T14:54:41.388Z,114.30
2023-02-14T14:56:17.536Z,95.10
2023-02-14T14:57:20.949Z,96.90
2023-02-14T14:58:26.003Z,94.70
2023-02-14T15:00:01.154Z,97.40
2023-02-14T15:00:29.200Z,113.50
2023-02-14T15:01:32.861Z,99.30
2023-02-14T15:02:36.170Z,96.00
2023-02-14T15:04:12.485Z,112.50
2023-02-14T15:05:15.763Z,113.70
2023-02-14T15:06:19.243Z,113.00
2023-02-14T15:07:54.908Z,97.20
2023-02-14T15:08:58.357Z,96.80
2023-02-14T15:10:01.989Z,113.60
2023-02-14T15:11:37.408Z,113.40
2023-02-14T15:12:40.845Z,98.20
2023-02-14T15:13:44.013Z,96.60
2023-02-14T15:15:19.857Z,111.60
2023-02-14T15:16:23.349Z,95.30
2023-02-14T15:17:27.005Z,112.60
2023-02-14T15:19:02.591Z,111.40
2023-02-14T15:20:05.897Z,114.60
2023-02-14T15:21:10.347Z,110.80
2023-02-14T15:22:48.312Z,113.40
2023-02-14T15:23:51.648Z,97.60
2023-02-14T15:24:55.170Z,112.50
2023-02-14T15:26:30.555Z,110.70
2023-02-14T15:27:33.934Z,97.40
2023-02-14T15:28:37.442Z,98.10
2023-02-14T15:30:13.106Z,113.00
2023-02-14T15:31:18.562Z,113.80
2023-02-14T15:32:22.966Z,113.50
2023-02-14T15:33:58.552Z,113.10
2023-02-14T15:35:02.012Z,113.30
2023-02-14T15:36:05.294Z,112.80
2023-02-14T15:37:41.130Z,94.60
2023-02-14T15:38:44.654Z,109.90
2023-02-14T15:39:48.077Z,98.40
2023-02-14T15:41:23.565Z,113.00
2023-02-14T15:42:26.698Z,98.40
2023-02-14T15:43:30.239Z,96.80
2023-02-14T15:45:05.995Z,115.70
2023-02-14T15:46:09.383Z,113.90
2023-02-14T15:47:12.767Z,94.90
2023-02-14T15:48:47.970Z,96.40
2023-02-14T15:49:51.467Z,93.50
2023-02-14T15:50:54.790Z,112.10